Spring Garden, Missouri
Current Conditions -  °F | °C
As of 2:35 PM on Thursday 29 Jan 2015 (Local Time) from KAIZ Reporting Station
Overcast Overcast  
Wind Chill:   Ceiling: 3300
Heat Index:   Visibility: 10mi
Dew Point: -3°   Wind: 13mph
Humidity: 57%   Direction: 290°WNW
Pressure: 30.3"   Gusts: 16mph
Location:  38.3538°N, 92.3679°W
Report Text: KAIZ 292035Z AUTO 29011G14KT 10SM OVC033 05/M03 A3030 RMK AO1
Loading
Personal Weather Stations






























Interactive Weather Map New forecast layout! Learn more

10-Day Weather Forecast

Advertisements
Track Severe Weather on mobile